createdAt,value
2019-03-15T00:02:14.179Z,7.79
2019-03-15T00:04:43.679Z,7.78
2019-03-15T00:07:13.101Z,7.80
2019-03-15T00:09:42.592Z,7.83
2019-03-15T00:12:12.181Z,7.86
2019-03-15T00:14:42.839Z,7.89
2019-03-15T00:17:12.271Z,7.93
2019-03-15T00:19:41.794Z,7.91
2019-03-15T00:22:11.263Z,7.90
2019-03-15T00:24:40.728Z,7.91
2019-03-15T00:27:10.210Z,7.93
2019-03-15T00:29:39.663Z,7.98
2019-03-15T00:32:10.680Z,7.96
2019-03-15T00:34:40.110Z,7.97
2019-03-15T00:37:09.584Z,7.94
2019-03-15T00:39:39.084Z,7.93
2019-03-15T00:42:08.586Z,7.93
2019-03-15T00:44:38.116Z,7.93
2019-03-15T00:47:07.610Z,7.92
2019-03-15T00:49:37.141Z,7.91
2019-03-15T00:52:06.717Z,7.90
2019-03-15T00:54:36.171Z,7.90
2019-03-15T00:57:05.606Z,7.93
2019-03-15T00:59:36.158Z,7.96
2019-03-15T01:02:05.684Z,7.93
2019-03-15T01:04:35.214Z,7.91
2019-03-15T01:07:04.772Z,7.93
2019-03-15T01:09:34.234Z,7.90
2019-03-15T01:12:04.568Z,7.89
2019-03-15T01:14:34.047Z,7.85
2019-03-15T01:17:04.615Z,7.84
2019-03-15T01:19:34.158Z,7.83
2019-03-15T01:22:04.539Z,7.81
2019-03-15T01:24:34.007Z,7.81
2019-03-15T01:27:03.448Z,7.82
2019-03-15T01:29:32.934Z,7.81
2019-03-15T01:32:02.361Z,7.82
2019-03-15T01:34:31.836Z,7.82
2019-03-15T01:37:01.264Z,7.83
2019-03-15T01:39:30.722Z,7.81
2019-03-15T01:42:00.176Z,7.79
2019-03-15T01:44:29.629Z,7.72
2019-03-15T01:46:59.383Z,7.66
2019-03-15T01:49:28.955Z,7.68
2019-03-15T01:51:58.399Z,7.72
2019-03-15T01:54:27.851Z,7.73
2019-03-15T01:56:57.283Z,7.72
2019-03-15T01:59:26.788Z,7.73
2019-03-15T02:01:56.850Z,7.72
2019-03-15T02:04:26.516Z,7.71
2019-03-15T02:06:56.333Z,7.70
2019-03-15T02:09:25.836Z,7.75
2019-03-15T02:11:55.607Z,7.79
2019-03-15T02:14:25.346Z,7.83
2019-03-15T02:16:54.866Z,7.84
2019-03-15T02:19:24.330Z,7.83
2019-03-15T02:21:53.760Z,7.80
2019-03-15T02:24:23.252Z,7.78
2019-03-15T02:26:53.030Z,7.77
2019-03-15T02:29:22.458Z,7.76
2019-03-15T02:31:51.946Z,7.76
2019-03-15T02:34:21.485Z,7.75
2019-03-15T02:36:50.929Z,7.72
2019-03-15T02:39:20.348Z,7.70
2019-03-15T02:41:49.833Z,7.70
2019-03-15T02:44:19.435Z,7.75
2019-03-15T02:46:48.905Z,7.80
2019-03-15T02:49:18.341Z,7.81
2019-03-15T02:51:47.827Z,7.84
2019-03-15T02:54:17.258Z,7.88
2019-03-15T02:56:46.853Z,7.90
2019-03-15T02:59:16.285Z,7.88
2019-03-15T03:01:45.739Z,7.88
2019-03-15T03:04:15.286Z,7.86
2019-03-15T03:06:44.725Z,7.84
2019-03-15T03:09:14.172Z,7.83
2019-03-15T03:11:43.633Z,7.83
2019-03-15T03:14:13.164Z,7.79
2019-03-15T03:16:42.642Z,7.76
2019-03-15T03:19:12.129Z,7.72
2019-03-15T03:21:42.196Z,7.68
2019-03-15T03:24:11.918Z,7.64
2019-03-15T03:26:41.379Z,7.62
2019-03-15T03:29:10.822Z,7.60
2019-03-15T03:31:40.436Z,7.55
2019-03-15T03:34:12.501Z,7.52
2019-03-15T03:36:41.259Z,7.51
2019-03-15T03:39:11.118Z,7.55
2019-03-15T03:41:40.634Z,7.54
2019-03-15T03:44:10.157Z,7.52
2019-03-15T03:46:40.494Z,7.55
2019-03-15T03:49:10.717Z,7.56
2019-03-15T03:51:40.193Z,7.54
2019-03-15T03:54:11.295Z,7.53
2019-03-15T03:56:41.093Z,7.49
2019-03-15T03:59:10.571Z,7.45
2019-03-15T04:01:40.067Z,7.45
2019-03-15T04:04:10.890Z,7.50
2019-03-15T04:06:40.479Z,7.56
2019-03-15T04:09:09.945Z,7.60
2019-03-15T04:11:39.423Z,7.60
2019-03-15T04:14:08.906Z,7.66
2019-03-15T04:16:38.436Z,7.71
2019-03-15T04:19:07.906Z,7.75
2019-03-15T04:21:38.436Z,7.75
2019-03-15T04:24:08.003Z,7.78
2019-03-15T04:26:37.474Z,7.82
2019-03-15T04:29:06.945Z,7.86
2019-03-15T04:31:36.419Z,7.89
2019-03-15T04:34:05.895Z,7.88
2019-03-15T04:36:35.367Z,7.87
2019-03-15T04:39:07.086Z,7.85
2019-03-15T04:41:36.562Z,7.85
2019-03-15T04:44:06.168Z,7.80
2019-03-15T04:46:35.639Z,7.72
2019-03-15T04:49:06.093Z,7.70
2019-03-15T04:51:35.524Z,7.70
2019-03-15T04:54:05.884Z,7.71
2019-03-15T04:56:35.567Z,7.73
2019-03-15T04:59:05.124Z,7.76
2019-03-15T05:01:34.564Z,7.74
2019-03-15T05:04:04.384Z,7.76
2019-03-15T05:06:33.822Z,7.78
2019-03-15T05:09:05.451Z,7.79
2019-03-15T05:11:34.914Z,7.83
2019-03-15T05:14:04.594Z,7.87
2019-03-15T05:16:34.057Z,7.87
2019-03-15T05:19:04.507Z,7.88
2019-03-15T05:21:33.984Z,7.88
2019-03-15T05:24:04.513Z,7.87
2019-03-15T05:26:33.971Z,7.86
2019-03-15T05:29:03.450Z,7.86
2019-03-15T05:31:33.010Z,7.88
2019-03-15T05:34:02.437Z,7.88
2019-03-15T05:36:31.978Z,7.89
2019-03-15T05:39:01.419Z,7.92
2019-03-15T05:41:31.082Z,7.91
2019-03-15T05:44:00.504Z,7.93
2019-03-15T05:46:30.037Z,7.98
2019-03-15T05:48:59.504Z,8.00
2019-03-15T05:51:28.932Z,8.05
2019-03-15T05:53:58.416Z,8.10
2019-03-15T05:56:27.870Z,8.11
2019-03-15T05:58:57.309Z,8.08
2019-03-15T06:01:27.872Z,8.10
2019-03-15T06:03:57.771Z,8.15
2019-03-15T06:06:31.116Z,8.17
2019-03-15T06:09:09.841Z,8.19
2019-03-15T06:11:39.317Z,8.24
2019-03-15T06:14:08.747Z,8.32
2019-03-15T06:16:38.290Z,8.38
2019-03-15T06:19:07.718Z,8.42
2019-03-15T06:21:37.312Z,8.47
2019-03-15T06:24:06.791Z,8.50
2019-03-15T06:26:36.254Z,8.52
2019-03-15T06:29:05.732Z,8.58
2019-03-15T06:31:35.237Z,8.65
2019-03-15T06:34:04.656Z,8.70
2019-03-15T06:36:34.126Z,8.71
2019-03-15T06:39:06.110Z,8.72
2019-03-15T06:41:35.565Z,8.78
2019-03-15T06:44:05.195Z,8.81
2019-03-15T06:46:34.626Z,8.84
2019-03-15T06:49:04.776Z,8.90
2019-03-15T06:51:34.209Z,8.97
2019-03-15T06:54:11.327Z,8.95
2019-03-15T06:56:35.527Z,8.93
2019-03-15T06:59:05.021Z,8.95
2019-03-15T07:01:34.458Z,8.97
2019-03-15T07:04:04.198Z,8.98
2019-03-15T07:06:33.656Z,8.97
2019-03-15T07:09:07.982Z,9.04
2019-03-15T07:11:37.428Z,9.18
2019-03-15T07:14:07.058Z,9.35
2019-03-15T07:16:38.168Z,9.50
2019-03-15T07:19:08.631Z,9.58
2019-03-15T07:21:38.126Z,9.62
2019-03-15T07:24:08.696Z,9.64
2019-03-15T07:26:38.133Z,9.65
2019-03-15T07:29:07.628Z,9.68
2019-03-15T07:31:37.172Z,9.69
2019-03-15T07:34:06.731Z,9.74
2019-03-15T07:36:37.338Z,9.82
2019-03-15T07:39:07.359Z,9.92
2019-03-15T07:41:37.237Z,9.99
2019-03-15T07:44:06.804Z,10.09
2019-03-15T07:46:36.361Z,10.18
2019-03-15T07:49:05.785Z,10.25
2019-03-15T07:51:35.267Z,10.32
2019-03-15T07:54:04.925Z,10.40
2019-03-15T07:56:34.390Z,10.50
2019-03-15T07:59:04.738Z,10.58
2019-03-15T08:01:34.227Z,10.72
2019-03-15T08:04:16.268Z,10.74
2019-03-15T08:06:36.409Z,10.74
2019-03-15T08:09:07.095Z,10.74
2019-03-15T08:11:36.592Z,10.67
2019-03-15T08:14:06.196Z,10.66
2019-03-15T08:16:35.628Z,10.66
2019-03-15T08:19:05.400Z,10.64
2019-03-15T08:21:34.866Z,10.68
2019-03-15T08:24:04.524Z,10.73
2019-03-15T08:26:34.038Z,10.81
2019-03-15T08:29:04.411Z,10.81
2019-03-15T08:31:33.891Z,10.81
2019-03-15T08:34:04.506Z,10.92
2019-03-15T08:36:33.954Z,10.91
2019-03-15T08:39:04.152Z,10.99
2019-03-15T08:41:33.727Z,11.09
2019-03-15T08:44:03.340Z,11.21
2019-03-15T08:46:32.774Z,11.24
2019-03-15T08:49:02.257Z,11.11
2019-03-15T08:51:31.812Z,10.99
2019-03-15T08:54:01.313Z,10.99
2019-03-15T08:56:30.752Z,11.00
2019-03-15T08:59:00.310Z,11.08
2019-03-15T09:01:29.755Z,11.13
2019-03-15T09:03:59.191Z,11.19
2019-03-15T09:06:28.665Z,11.21
2019-03-15T09:08:58.120Z,11.26
2019-03-15T09:11:27.607Z,11.33
2019-03-15T09:13:57.072Z,11.33
2019-03-15T09:16:26.525Z,11.20
2019-03-15T09:18:56.006Z,11.12
2019-03-15T09:21:25.563Z,11.07
2019-03-15T09:23:55.043Z,10.97
2019-03-15T09:26:24.869Z,10.96
2019-03-15T09:28:54.330Z,11.02
2019-03-15T09:31:23.781Z,11.01
2019-03-15T09:33:53.218Z,11.03
2019-03-15T09:36:22.686Z,10.97
2019-03-15T09:38:52.122Z,10.97
2019-03-15T09:41:31.870Z,11.06
2019-03-15T09:43:52.743Z,11.05
2019-03-15T09:46:22.217Z,11.07
2019-03-15T09:48:51.749Z,11.00
2019-03-15T09:51:21.261Z,10.83
2019-03-15T09:53:50.721Z,10.76
2019-03-15T09:56:20.175Z,10.77
2019-03-15T09:58:49.647Z,10.94
2019-03-15T10:01:34.398Z,10.92
2019-03-15T10:03:50.245Z,10.90
2019-03-15T10:06:19.790Z,10.95
2019-03-15T10:08:49.222Z,10.99
2019-03-15T10:11:18.658Z,11.06
2019-03-15T10:13:48.129Z,11.07
2019-03-15T10:16:17.566Z,10.82
2019-03-15T10:18:50.256Z,10.87
2019-03-15T10:21:18.173Z,10.88
2019-03-15T10:23:47.651Z,11.05
2019-03-15T10:26:17.253Z,11.20
2019-03-15T10:28:46.754Z,11.19
2019-03-15T10:31:16.175Z,11.09
2019-03-15T10:33:50.697Z,10.94
2019-03-15T10:36:17.977Z,10.77
2019-03-15T10:38:47.448Z,10.75
2019-03-15T10:41:16.901Z,10.74
2019-03-15T10:43:46.336Z,10.77
2019-03-15T10:46:15.800Z,10.76
2019-03-15T10:48:45.310Z,10.89
2019-03-15T10:51:14.753Z,11.06
2019-03-15T10:53:44.240Z,11.17
2019-03-15T10:56:13.767Z,11.29
2019-03-15T10:58:43.245Z,11.60
2019-03-15T11:01:12.704Z,11.66
2019-03-15T11:03:42.128Z,11.93
2019-03-15T11:06:11.557Z,11.86
2019-03-15T11:08:41.050Z,11.79
2019-03-15T11:11:10.690Z,11.73
2019-03-15T11:13:41.042Z,11.86
2019-03-15T11:16:10.522Z,11.76
2019-03-15T11:18:39.985Z,11.82
2019-03-15T11:21:09.448Z,11.78
2019-03-15T11:23:38.922Z,11.86
2019-03-15T11:26:13.670Z,11.91
2019-03-15T11:28:39.534Z,12.07
2019-03-15T11:31:08.985Z,12.13
2019-03-15T11:33:38.612Z,12.10
2019-03-15T11:36:08.069Z,12.10
2019-03-15T11:38:37.539Z,12.08
2019-03-15T11:41:07.009Z,11.99
2019-03-15T11:43:36.513Z,12.01
2019-03-15T11:46:06.087Z,12.05
2019-03-15T11:48:35.590Z,11.98
2019-03-15T11:51:06.136Z,11.94
2019-03-15T11:53:35.565Z,11.90
2019-03-15T11:56:05.384Z,11.96
2019-03-15T11:58:34.918Z,12.15
2019-03-15T12:01:04.432Z,12.32
2019-03-15T12:03:33.858Z,12.48
2019-03-15T12:06:04.474Z,12.61
2019-03-15T12:08:33.982Z,12.61
2019-03-15T12:11:03.514Z,12.50
2019-03-15T12:13:32.962Z,12.48
2019-03-15T12:16:02.439Z,12.37
2019-03-15T12:18:31.952Z,12.30
2019-03-15T12:21:01.550Z,12.31
2019-03-15T12:23:30.981Z,12.33
2019-03-15T12:26:00.442Z,12.35
2019-03-15T12:28:29.900Z,12.38
2019-03-15T12:30:59.709Z,12.43
2019-03-15T12:33:29.728Z,12.32
2019-03-15T12:35:59.258Z,11.99
2019-03-15T12:38:28.751Z,11.99
2019-03-15T12:40:58.448Z,11.83
2019-03-15T12:43:27.944Z,11.69
2019-03-15T12:45:57.426Z,11.56
2019-03-15T12:48:26.930Z,11.53
2019-03-15T12:50:56.672Z,11.61
2019-03-15T12:53:27.158Z,11.55
2019-03-15T12:55:57.458Z,11.39
2019-03-15T12:58:27.144Z,11.18
2019-03-15T13:00:56.798Z,10.93
2019-03-15T13:03:26.213Z,10.66
2019-03-15T13:05:55.730Z,10.51
2019-03-15T13:08:25.403Z,10.49
2019-03-15T13:10:54.934Z,10.89
2019-03-15T13:13:24.452Z,11.28
2019-03-15T13:15:54.021Z,11.49
2019-03-15T13:18:23.664Z,11.53
2019-03-15T13:20:53.228Z,11.67
2019-03-15T13:23:22.679Z,11.87
2019-03-15T13:25:54.554Z,11.99
2019-03-15T13:28:23.313Z,12.14
2019-03-15T13:30:53.026Z,12.37
2019-03-15T13:33:22.455Z,12.51
2019-03-15T13:35:52.339Z,12.39
2019-03-15T13:38:21.773Z,12.49
2019-03-15T13:40:51.369Z,12.59
2019-03-15T13:43:20.889Z,12.76
2019-03-15T13:45:50.349Z,12.92
2019-03-15T13:48:19.856Z,13.07
2019-03-15T13:50:49.332Z,13.09
2019-03-15T13:53:18.918Z,13.22
2019-03-15T13:55:48.409Z,13.31
2019-03-15T13:58:17.861Z,13.40
2019-03-15T14:00:47.341Z,13.50
2019-03-15T14:03:16.812Z,13.54
2019-03-15T14:05:46.298Z,13.65
2019-03-15T14:08:16.127Z,13.68
2019-03-15T14:10:49.704Z,13.63
2019-03-15T14:13:16.771Z,13.52
2019-03-15T14:15:46.195Z,13.55
2019-03-15T14:18:15.680Z,13.49
2019-03-15T14:20:45.109Z,13.59
2019-03-15T14:23:14.637Z,13.56
2019-03-15T14:25:44.150Z,13.56
2019-03-15T14:28:13.584Z,13.54
2019-03-15T14:30:43.043Z,13.53
2019-03-15T14:33:12.885Z,13.52
2019-03-15T14:35:42.370Z,13.54
2019-03-15T14:38:11.860Z,13.62
2019-03-15T14:40:41.578Z,13.63
2019-03-15T14:43:11.137Z,13.69
2019-03-15T14:45:40.657Z,13.74
2019-03-15T14:48:10.203Z,13.75
2019-03-15T14:50:46.895Z,13.76
2019-03-15T14:53:18.859Z,13.75
2019-03-15T14:55:48.295Z,13.80
2019-03-15T14:58:17.763Z,13.88
2019-03-15T15:00:47.274Z,13.91
2019-03-15T15:03:16.732Z,13.92
2019-03-15T15:05:47.484Z,13.97
2019-03-15T15:08:17.145Z,13.97
2019-03-15T15:10:46.573Z,13.96
2019-03-15T15:13:16.045Z,13.99
2019-03-15T15:15:45.468Z,14.00
2019-03-15T15:18:14.939Z,13.98
2019-03-15T15:20:44.372Z,13.87
2019-03-15T15:23:13.806Z,13.94
2019-03-15T15:25:43.277Z,14.01
2019-03-15T15:28:12.746Z,13.97
2019-03-15T15:30:42.212Z,13.89
2019-03-15T15:33:11.660Z,13.76
2019-03-15T15:35:41.763Z,13.69
2019-03-15T15:38:11.627Z,13.57
2019-03-15T15:40:41.060Z,13.45
2019-03-15T15:43:10.530Z,13.48
2019-03-15T15:45:40.193Z,13.34
2019-03-15T15:48:09.849Z,13.34
2019-03-15T15:50:39.484Z,13.30
2019-03-15T15:53:11.152Z,13.28
2019-03-15T15:55:40.197Z,13.27
2019-03-15T15:58:17.827Z,13.24
2019-03-15T16:00:40.986Z,13.20
2019-03-15T16:03:10.639Z,13.17
2019-03-15T16:05:41.231Z,13.15
2019-03-15T16:08:11.260Z,13.11
2019-03-15T16:10:40.798Z,13.06
2019-03-15T16:13:17.213Z,13.00
2019-03-15T16:15:41.610Z,12.97
2019-03-15T16:18:11.091Z,12.96
2019-03-15T16:20:40.556Z,12.95
2019-03-15T16:23:10.672Z,12.89
2019-03-15T16:25:40.248Z,12.85
2019-03-15T16:28:09.757Z,12.75
2019-03-15T16:30:39.241Z,12.63
2019-03-15T16:33:08.718Z,12.58
2019-03-15T16:35:38.233Z,12.55
2019-03-15T16:38:08.298Z,12.44
2019-03-15T16:40:37.843Z,12.39
2019-03-15T16:43:07.392Z,12.32
2019-03-15T16:45:36.870Z,12.23
2019-03-15T16:48:06.373Z,12.22
2019-03-15T16:50:36.944Z,12.15
2019-03-15T16:53:06.728Z,12.12
2019-03-15T16:55:36.265Z,12.07
2019-03-15T16:58:05.920Z,12.02
2019-03-15T17:00:35.603Z,11.98
2019-03-15T17:03:05.140Z,11.90
2019-03-15T17:05:34.568Z,11.83
2019-03-15T17:08:04.049Z,11.77
2019-03-15T17:10:33.480Z,11.73
2019-03-15T17:13:03.513Z,11.69
2019-03-15T17:15:33.394Z,11.64
2019-03-15T17:18:02.957Z,11.58
2019-03-15T17:20:33.041Z,11.50
2019-03-15T17:23:02.606Z,11.43
2019-03-15T17:25:32.449Z,11.35
2019-03-15T17:28:02.720Z,11.29
2019-03-15T17:30:32.419Z,11.19
2019-03-15T17:33:01.852Z,11.10
2019-03-15T17:35:31.462Z,11.06
2019-03-15T17:38:00.874Z,11.02
2019-03-15T17:40:30.682Z,10.99
2019-03-15T17:43:00.113Z,10.99
2019-03-15T17:45:29.589Z,11.02
2019-03-15T17:47:59.861Z,11.05
2019-03-15T17:50:29.600Z,11.00
2019-03-15T17:53:01.286Z,10.94
2019-03-15T17:55:31.343Z,10.89
2019-03-15T17:58:00.877Z,10.84
2019-03-15T18:00:47.011Z,10.80
2019-03-15T18:03:21.419Z,10.73
2019-03-15T18:05:47.724Z,10.62
2019-03-15T18:08:17.556Z,10.62
2019-03-15T18:10:47.190Z,10.59
2019-03-15T18:13:16.648Z,10.55
2019-03-15T18:15:46.106Z,10.49
2019-03-15T18:18:15.530Z,10.44
2019-03-15T18:20:45.047Z,10.38
2019-03-15T18:23:14.504Z,10.31
2019-03-15T18:25:43.972Z,10.28
2019-03-15T18:28:13.462Z,10.24
2019-03-15T18:30:42.945Z,10.20
2019-03-15T18:33:13.918Z,10.18
2019-03-15T18:35:43.408Z,10.12
2019-03-15T18:38:12.862Z,10.10
2019-03-15T18:40:43.489Z,10.06
2019-03-15T18:43:14.280Z,9.97
2019-03-15T18:45:43.901Z,9.90
2019-03-15T18:48:13.384Z,9.88
2019-03-15T18:50:43.005Z,9.84
2019-03-15T18:53:12.962Z,9.79
2019-03-15T18:55:42.671Z,9.73
2019-03-15T18:58:12.096Z,9.68
2019-03-15T19:00:41.814Z,9.67
2019-03-15T19:03:11.828Z,9.67
2019-03-15T19:05:41.364Z,9.63
2019-03-15T19:08:10.850Z,9.56
2019-03-15T19:10:40.474Z,9.50
2019-03-15T19:13:10.077Z,9.48
2019-03-15T19:15:39.602Z,9.44
2019-03-15T19:18:09.104Z,9.41
2019-03-15T19:20:38.670Z,9.39
2019-03-15T19:23:08.641Z,9.37
2019-03-15T19:25:38.583Z,9.32
2019-03-15T19:28:08.665Z,9.26
2019-03-15T19:30:39.203Z,9.23
2019-03-15T19:33:08.644Z,9.17
2019-03-15T19:35:38.114Z,9.14
2019-03-15T19:38:07.545Z,9.16
2019-03-15T19:40:37.033Z,9.20
2019-03-15T19:43:06.581Z,9.26
2019-03-15T19:45:36.052Z,9.24
2019-03-15T19:48:05.637Z,9.20
2019-03-15T19:50:37.309Z,9.15
2019-03-15T19:53:07.815Z,9.11
2019-03-15T19:55:38.095Z,9.11
2019-03-15T19:58:07.985Z,9.01
2019-03-15T20:00:38.138Z,9.01
2019-03-15T20:03:07.678Z,8.99
2019-03-15T20:05:37.109Z,8.94
2019-03-15T20:08:06.952Z,8.90
2019-03-15T20:10:37.405Z,8.86
2019-03-15T20:13:07.365Z,8.84
2019-03-15T20:15:36.966Z,8.90
2019-03-15T20:18:06.616Z,8.97
2019-03-15T20:20:36.628Z,9.04
2019-03-15T20:23:06.224Z,9.11
2019-03-15T20:25:35.683Z,9.14
2019-03-15T20:28:06.689Z,9.13
2019-03-15T20:30:50.973Z,9.10
2019-03-15T20:33:09.096Z,9.02
2019-03-15T20:35:38.623Z,8.99
2019-03-15T20:38:08.049Z,8.95
2019-03-15T20:40:37.533Z,8.89
2019-03-15T20:43:07.529Z,8.82
2019-03-15T20:45:37.002Z,8.76
2019-03-15T20:48:06.732Z,8.70
2019-03-15T20:50:46.284Z,8.64
2019-03-15T20:53:12.570Z,8.61
2019-03-15T20:55:38.939Z,8.55
2019-03-15T20:58:08.322Z,8.50
2019-03-15T21:00:38.765Z,8.47
2019-03-15T21:03:08.344Z,8.42
2019-03-15T21:05:39.795Z,8.38
2019-03-15T21:08:09.681Z,8.33
2019-03-15T21:10:39.372Z,8.31
2019-03-15T21:13:08.853Z,8.33
2019-03-15T21:15:38.438Z,8.32
2019-03-15T21:18:07.952Z,8.26
2019-03-15T21:20:37.737Z,8.21
2019-03-15T21:23:07.287Z,8.17
2019-03-15T21:25:36.982Z,8.16
2019-03-15T21:28:06.682Z,8.14
2019-03-15T21:30:47.912Z,8.12
2019-03-15T21:33:07.794Z,8.09
2019-03-15T21:35:38.502Z,8.10
2019-03-15T21:38:08.067Z,8.09
2019-03-15T21:40:37.507Z,8.09
2019-03-15T21:43:07.010Z,8.07
2019-03-15T21:45:36.806Z,8.07
2019-03-15T21:48:06.228Z,8.07
2019-03-15T21:50:35.691Z,8.03
2019-03-15T21:53:05.320Z,8.03
2019-03-15T21:55:34.789Z,7.99
2019-03-15T21:58:04.431Z,7.96
2019-03-15T22:00:33.986Z,7.94
2019-03-15T22:03:04.510Z,7.94
2019-03-15T22:05:34.057Z,7.92
2019-03-15T22:08:04.453Z,7.88
2019-03-15T22:10:34.009Z,7.85
2019-03-15T22:13:03.483Z,7.80
2019-03-15T22:15:32.956Z,7.78
2019-03-15T22:18:02.539Z,7.76
2019-03-15T22:20:31.974Z,7.74
2019-03-15T22:23:01.848Z,7.73
2019-03-15T22:25:31.797Z,7.73
2019-03-15T22:28:01.328Z,7.71
2019-03-15T22:30:30.774Z,7.70
2019-03-15T22:33:00.271Z,7.71
2019-03-15T22:35:29.823Z,7.72
2019-03-15T22:37:59.259Z,7.74
2019-03-15T22:40:28.739Z,7.75
2019-03-15T22:42:59.015Z,7.76
2019-03-15T22:45:28.450Z,7.76
2019-03-15T22:47:57.926Z,7.77
2019-03-15T22:50:27.348Z,7.75
2019-03-15T22:52:56.803Z,7.72
2019-03-15T22:55:26.238Z,7.68
2019-03-15T22:58:00.037Z,7.65
2019-03-15T23:00:28.493Z,7.67
2019-03-15T23:02:59.708Z,7.69
2019-03-15T23:05:29.188Z,7.69
2019-03-15T23:07:58.743Z,7.73
2019-03-15T23:10:28.395Z,7.73
2019-03-15T23:12:57.859Z,7.71
2019-03-15T23:15:27.294Z,7.71
2019-03-15T23:17:56.744Z,7.72
2019-03-15T23:20:26.183Z,7.74
2019-03-15T23:22:55.660Z,7.73
2019-03-15T23:25:25.148Z,7.72
2019-03-15T23:27:54.717Z,7.73
2019-03-15T23:30:24.361Z,7.75
2019-03-15T23:32:53.872Z,7.78
2019-03-15T23:35:23.298Z,7.81
2019-03-15T23:37:52.758Z,7.81
2019-03-15T23:40:22.280Z,7.81
2019-03-15T23:42:51.735Z,7.81
2019-03-15T23:45:21.361Z,7.80
2019-03-15T23:47:50.834Z,7.78
2019-03-15T23:50:20.281Z,7.78
2019-03-15T23:52:49.811Z,7.79
2019-03-15T23:55:19.291Z,7.79
2019-03-15T23:57:48.782Z,7.77
